createdAt,value
2023-01-19T00:01:15.170Z,78.26
2023-01-19T00:03:43.405Z,78.28
2023-01-19T00:06:12.110Z,78.31
2023-01-19T00:08:40.475Z,78.49
2023-01-19T00:11:08.624Z,78.49
2023-01-19T00:13:37.131Z,78.68
2023-01-19T00:16:07.438Z,78.51
2023-01-19T00:18:35.578Z,78.51
2023-01-19T00:21:03.798Z,78.60
2023-01-19T00:23:31.909Z,78.48
2023-01-19T00:26:00.048Z,78.84
2023-01-19T00:28:28.283Z,78.55
2023-01-19T00:30:56.857Z,78.72
2023-01-19T00:33:25.087Z,78.71
2023-01-19T00:35:56.960Z,78.96
2023-01-19T00:38:25.146Z,78.90
2023-01-19T00:40:53.329Z,78.98
2023-01-19T00:43:21.907Z,78.91
2023-01-19T00:45:50.168Z,79.10
2023-01-19T00:48:18.384Z,79.10
2023-01-19T00:50:47.861Z,79.59
2023-01-19T00:53:15.998Z,79.28
2023-01-19T00:55:44.231Z,79.43
2023-01-19T00:58:12.385Z,79.31
2023-01-19T01:00:40.525Z,79.38
2023-01-19T01:03:09.961Z,79.40
2023-01-19T01:05:42.446Z,79.46
2023-01-19T01:08:10.585Z,79.27
2023-01-19T01:10:38.657Z,79.35
2023-01-19T01:13:20.790Z,79.36
2023-01-19T01:15:53.046Z,79.35
2023-01-19T01:18:22.216Z,79.41
2023-01-19T01:20:50.315Z,79.39
2023-01-19T01:23:23.018Z,79.55
2023-01-19T01:25:51.337Z,79.58
2023-01-19T01:28:19.441Z,79.59
2023-01-19T01:30:48.022Z,79.62
2023-01-19T01:33:16.165Z,79.75
2023-01-19T01:36:04.793Z,79.69
2023-01-19T01:38:33.103Z,79.82
2023-01-19T01:41:01.233Z,79.70
2023-01-19T01:43:58.745Z,79.61
2023-01-19T01:46:29.639Z,79.89
2023-01-19T01:49:17.637Z,79.76
2023-01-19T01:51:51.138Z,79.81
2023-01-19T01:54:27.648Z,79.81
2023-01-19T01:57:02.955Z,80.02
2023-01-19T01:59:39.154Z,79.81
2023-01-19T02:02:42.417Z,79.94
2023-01-19T02:05:33.975Z,79.94
2023-01-19T02:08:31.833Z,79.90
2023-01-19T02:11:20.096Z,79.92
2023-01-19T02:13:48.841Z,79.94
2023-01-19T02:16:17.837Z,79.80
2023-01-19T02:18:46.036Z,80.01
2023-01-19T02:21:44.587Z,79.97
2023-01-19T02:24:12.917Z,80.13
2023-01-19T02:26:47.602Z,80.22
2023-01-19T02:29:20.867Z,80.27
2023-01-19T02:31:49.009Z,80.16
2023-01-19T02:34:20.910Z,80.10
2023-01-19T02:36:56.516Z,80.25
2023-01-19T02:39:41.526Z,80.26
2023-01-19T02:42:27.148Z,80.37
2023-01-19T02:44:57.134Z,80.29
2023-01-19T02:47:25.286Z,80.36
2023-01-19T02:49:59.005Z,80.57
2023-01-19T02:52:28.065Z,80.54
2023-01-19T02:55:18.204Z,80.65
2023-01-19T02:58:13.465Z,80.74
2023-01-19T03:00:41.507Z,80.73
2023-01-19T03:03:33.084Z,80.81
2023-01-19T03:06:05.004Z,80.72
2023-01-19T03:08:53.053Z,80.75
2023-01-19T03:11:25.165Z,80.82
2023-01-19T03:14:01.683Z,80.93
2023-01-19T03:16:42.788Z,81.05
2023-01-19T03:19:20.460Z,80.99
2023-01-19T03:21:57.196Z,81.14
2023-01-19T03:24:30.955Z,81.22
2023-01-19T03:27:07.073Z,81.20
2023-01-19T03:29:38.633Z,81.29
2023-01-19T03:32:12.817Z,81.48
2023-01-19T03:34:43.175Z,81.45
2023-01-19T03:37:14.269Z,81.43
2023-01-19T03:39:42.723Z,81.68
2023-01-19T03:42:16.219Z,81.75
2023-01-19T03:44:46.630Z,81.62
2023-01-19T03:47:15.209Z,82.07
2023-01-19T03:49:45.716Z,81.96
2023-01-19T03:52:14.279Z,81.89
2023-01-19T03:54:43.437Z,82.05
2023-01-19T03:57:11.543Z,82.25
2023-01-19T03:59:39.602Z,82.01
2023-01-19T04:02:08.078Z,81.88
2023-01-19T04:04:36.202Z,81.89
2023-01-19T04:07:04.258Z,81.88
2023-01-19T04:09:32.485Z,82.32
2023-01-19T04:12:01.944Z,82.76
2023-01-19T04:14:30.088Z,82.55
2023-01-19T04:16:58.185Z,82.69
2023-01-19T04:19:26.310Z,82.48
2023-01-19T04:21:55.466Z,82.65
2023-01-19T04:24:23.562Z,82.79
2023-01-19T04:26:53.557Z,82.63
2023-01-19T04:29:21.641Z,82.49
2023-01-19T04:31:49.697Z,82.64
2023-01-19T04:34:17.833Z,82.86
2023-01-19T04:36:46.762Z,82.79
2023-01-19T04:39:14.885Z,82.85
2023-01-19T04:41:43.539Z,83.02
2023-01-19T04:44:11.661Z,83.07
2023-01-19T04:46:40.216Z,83.12
2023-01-19T04:49:10.127Z,83.23
2023-01-19T04:51:38.236Z,83.23
2023-01-19T04:54:09.043Z,82.84
2023-01-19T04:56:37.321Z,82.96
2023-01-19T04:59:05.388Z,83.30
2023-01-19T05:01:33.538Z,83.44
2023-01-19T05:04:03.769Z,83.30
2023-01-19T05:06:32.168Z,83.44
2023-01-19T05:09:00.522Z,83.40
2023-01-19T05:11:28.669Z,83.71
2023-01-19T05:13:56.811Z,83.67
2023-01-19T05:16:25.102Z,83.81
2023-01-19T05:18:53.323Z,83.75
2023-01-19T05:21:21.505Z,83.88
2023-01-19T05:23:49.579Z,84.07
2023-01-19T05:26:17.717Z,84.14
2023-01-19T05:28:45.834Z,84.02
2023-01-19T05:31:14.009Z,83.76
2023-01-19T05:33:42.593Z,83.99
2023-01-19T05:36:10.717Z,84.14
2023-01-19T05:38:38.754Z,84.21
2023-01-19T05:41:06.906Z,84.56
2023-01-19T05:43:35.012Z,84.22
2023-01-19T05:46:06.091Z,84.29
2023-01-19T05:48:34.233Z,84.13
2023-01-19T05:51:02.326Z,84.28
2023-01-19T05:53:31.068Z,84.28
2023-01-19T05:56:05.857Z,84.48
2023-01-19T05:58:35.464Z,84.35
2023-01-19T06:01:05.989Z,84.62
2023-01-19T06:03:35.626Z,84.32
2023-01-19T06:06:04.336Z,84.01
2023-01-19T06:08:32.674Z,84.38
2023-01-19T06:11:00.822Z,84.46
2023-01-19T06:13:28.941Z,84.35
2023-01-19T06:16:02.174Z,84.36
2023-01-19T06:18:30.322Z,84.35
2023-01-19T06:21:01.254Z,84.46
2023-01-19T06:23:34.295Z,84.50
2023-01-19T06:26:03.037Z,84.47
2023-01-19T06:28:31.827Z,84.43
2023-01-19T06:30:59.960Z,84.38
2023-01-19T06:33:28.453Z,84.13
2023-01-19T06:35:56.655Z,84.28
2023-01-19T06:38:24.774Z,84.09
2023-01-19T06:41:02.698Z,84.24
2023-01-19T06:43:31.956Z,84.32
2023-01-19T06:46:00.731Z,84.20
2023-01-19T06:48:28.965Z,84.27
2023-01-19T06:50:58.724Z,84.17
2023-01-19T06:53:30.174Z,84.24
2023-01-19T06:56:01.483Z,84.18
2023-01-19T06:58:30.379Z,84.13
2023-01-19T07:01:06.639Z,84.10
2023-01-19T07:03:37.396Z,84.05
2023-01-19T07:06:08.793Z,84.10
2023-01-19T07:08:38.209Z,84.11
2023-01-19T07:11:25.690Z,83.89
2023-01-19T07:13:58.651Z,84.10
2023-01-19T07:16:26.964Z,84.07
2023-01-19T07:18:55.517Z,84.02
2023-01-19T07:21:23.822Z,84.01
2023-01-19T07:23:52.860Z,83.92
2023-01-19T07:26:24.956Z,83.91
2023-01-19T07:28:53.098Z,83.93
2023-01-19T07:31:21.334Z,83.99
2023-01-19T07:33:50.041Z,83.96
2023-01-19T07:36:18.192Z,84.06
2023-01-19T07:38:46.329Z,84.03
2023-01-19T07:41:14.529Z,84.01
2023-01-19T07:43:42.805Z,84.00
2023-01-19T07:46:10.984Z,84.04
2023-01-19T07:48:39.788Z,83.87
2023-01-19T07:51:12.985Z,83.84
2023-01-19T07:53:41.956Z,83.71
2023-01-19T07:56:11.221Z,83.86
2023-01-19T07:58:39.913Z,83.85
2023-01-19T08:01:13.671Z,83.56
2023-01-19T08:03:42.457Z,83.45
2023-01-19T08:06:21.061Z,83.47
2023-01-19T08:08:49.898Z,83.45
2023-01-19T08:11:17.987Z,83.37
2023-01-19T08:13:46.084Z,83.47
2023-01-19T08:16:14.197Z,83.36
2023-01-19T08:18:42.772Z,83.29
2023-01-19T08:21:11.017Z,83.20
2023-01-19T08:23:39.217Z,83.35
2023-01-19T08:26:24.295Z,83.25
2023-01-19T08:28:52.424Z,83.37
2023-01-19T08:31:24.468Z,83.25
2023-01-19T08:33:53.922Z,83.26
2023-01-19T08:36:22.707Z,83.42
2023-01-19T08:38:51.328Z,83.32
2023-01-19T08:41:19.673Z,83.25
2023-01-19T08:43:49.196Z,83.14
2023-01-19T08:46:20.811Z,83.22
2023-01-19T08:48:50.372Z,83.19
2023-01-19T08:51:19.589Z,83.02
2023-01-19T08:53:48.321Z,83.07
2023-01-19T08:56:17.047Z,82.93
2023-01-19T08:58:49.367Z,82.89
2023-01-19T09:01:25.580Z,82.74
2023-01-19T09:03:54.632Z,82.82
2023-01-19T09:06:24.468Z,82.59
2023-01-19T09:08:52.583Z,82.48
2023-01-19T09:11:20.739Z,82.39
2023-01-19T09:13:48.890Z,82.22
2023-01-19T09:16:17.055Z,82.24
2023-01-19T09:18:46.192Z,82.27
2023-01-19T09:21:15.259Z,82.09
2023-01-19T09:23:43.347Z,81.94
2023-01-19T09:26:11.688Z,82.11
2023-01-19T09:28:39.848Z,81.64
2023-01-19T09:31:09.333Z,81.39
2023-01-19T09:33:37.807Z,81.39
2023-01-19T09:36:06.489Z,81.22
2023-01-19T09:38:34.664Z,81.13
2023-01-19T09:41:04.496Z,80.68
2023-01-19T09:43:43.165Z,80.72
2023-01-19T09:46:24.499Z,80.69
2023-01-19T09:48:59.667Z,80.79
2023-01-19T09:51:43.760Z,80.64
2023-01-19T09:54:41.121Z,80.43
2023-01-19T09:57:13.679Z,80.49
2023-01-19T09:59:43.935Z,80.29
2023-01-19T10:02:29.694Z,80.30
2023-01-19T10:05:29.626Z,80.28
2023-01-19T10:08:35.941Z,79.82
2023-01-19T10:11:10.204Z,79.63
2023-01-19T10:13:52.422Z,79.40
2023-01-19T10:16:33.878Z,79.57
2023-01-19T10:19:29.620Z,79.42
2023-01-19T10:22:03.874Z,79.24
2023-01-19T10:24:44.557Z,79.17
2023-01-19T10:27:26.274Z,79.21
2023-01-19T10:29:55.099Z,79.14
2023-01-19T10:32:32.791Z,79.15
2023-01-19T10:35:02.483Z,79.15
2023-01-19T10:37:34.487Z,79.13
2023-01-19T10:40:27.559Z,79.16
2023-01-19T10:42:57.033Z,79.22
2023-01-19T10:45:30.874Z,79.23
2023-01-19T10:48:07.346Z,79.11
2023-01-19T10:50:41.188Z,78.92
2023-01-19T10:53:22.772Z,78.85
2023-01-19T10:56:12.269Z,78.58
2023-01-19T10:58:40.818Z,78.46
2023-01-19T11:01:22.941Z,78.32
2023-01-19T11:03:53.436Z,77.94
2023-01-19T11:06:26.574Z,77.99
2023-01-19T11:09:10.802Z,77.88
2023-01-19T11:11:51.556Z,77.90
2023-01-19T11:14:24.169Z,78.04
2023-01-19T11:16:58.353Z,77.92
2023-01-19T11:19:31.738Z,77.39
2023-01-19T11:22:21.922Z,77.43
2023-01-19T11:24:50.767Z,77.41
2023-01-19T11:27:22.547Z,77.13
2023-01-19T11:30:05.313Z,77.02
2023-01-19T11:32:36.986Z,76.66
2023-01-19T11:35:41.229Z,76.92
2023-01-19T11:38:12.103Z,76.82
2023-01-19T11:40:42.103Z,76.56
2023-01-19T11:43:13.571Z,76.63
2023-01-19T11:45:44.280Z,76.65
2023-01-19T11:48:25.270Z,76.36
2023-01-19T11:50:54.660Z,76.08
2023-01-19T11:53:28.308Z,75.78
2023-01-19T11:56:11.012Z,75.49
2023-01-19T11:58:43.289Z,75.12
2023-01-19T12:01:24.693Z,74.55
2023-01-19T12:04:28.728Z,72.48
2023-01-19T12:06:59.136Z,72.48
2023-01-19T12:09:39.113Z,72.53
2023-01-19T12:12:19.822Z,72.09
2023-01-19T12:15:22.783Z,71.79
2023-01-19T12:17:58.095Z,71.78
2023-01-19T12:20:39.220Z,71.38
2023-01-19T12:23:25.910Z,70.92
2023-01-19T12:26:24.903Z,70.85
2023-01-19T12:28:54.667Z,70.72
2023-01-19T12:31:24.112Z,70.54
2023-01-19T12:33:52.924Z,70.27
2023-01-19T12:36:30.075Z,70.16
2023-01-19T12:39:23.698Z,69.89
2023-01-19T12:42:24.471Z,70.05
2023-01-19T12:45:23.217Z,70.26
2023-01-19T12:47:56.399Z,70.25
2023-01-19T12:50:26.111Z,70.11
2023-01-19T12:52:58.772Z,69.67
2023-01-19T12:55:31.509Z,69.54
2023-01-19T12:58:20.611Z,68.74
2023-01-19T13:01:10.589Z,68.69
2023-01-19T13:04:09.722Z,68.56
2023-01-19T13:06:49.935Z,68.32
2023-01-19T13:09:38.186Z,68.09
2023-01-19T13:12:15.360Z,67.84
2023-01-19T13:14:44.194Z,67.53
2023-01-19T13:17:38.746Z,67.46
2023-01-19T13:20:22.121Z,67.20
2023-01-19T13:22:52.365Z,66.91
2023-01-19T13:25:39.052Z,67.32
2023-01-19T13:28:10.335Z,67.33
2023-01-19T13:30:59.050Z,67.30
2023-01-19T13:33:33.738Z,67.33
2023-01-19T13:36:01.839Z,67.17
2023-01-19T13:38:32.872Z,67.16
2023-01-19T13:41:03.008Z,66.85
2023-01-19T13:43:37.660Z,66.69
2023-01-19T13:46:06.265Z,66.84
2023-01-19T13:48:34.604Z,66.83
2023-01-19T13:51:16.683Z,66.62
2023-01-19T13:53:59.264Z,66.78
2023-01-19T13:56:29.845Z,66.74
2023-01-19T13:59:12.709Z,66.66
2023-01-19T14:01:45.907Z,66.60
2023-01-19T14:04:35.002Z,66.62
2023-01-19T14:07:13.901Z,66.66
2023-01-19T14:09:42.105Z,66.58
2023-01-19T14:12:17.522Z,66.51
2023-01-19T14:14:49.815Z,66.33
2023-01-19T14:17:28.818Z,66.25
2023-01-19T14:20:00.989Z,66.05
2023-01-19T14:22:45.004Z,65.83
2023-01-19T14:25:30.367Z,65.88
2023-01-19T14:28:40.249Z,66.03
2023-01-19T14:31:28.681Z,66.09
2023-01-19T14:33:58.613Z,66.06
2023-01-19T14:36:34.002Z,65.81
2023-01-19T14:39:03.577Z,65.75
2023-01-19T14:41:52.918Z,65.54
2023-01-19T14:44:38.940Z,65.50
2023-01-19T14:47:25.321Z,65.56
2023-01-19T14:49:56.409Z,65.68
2023-01-19T14:52:37.335Z,65.55
2023-01-19T14:55:08.389Z,65.55
2023-01-19T14:57:37.873Z,65.54
2023-01-19T15:00:17.829Z,65.51
2023-01-19T15:02:47.501Z,65.60
2023-01-19T15:05:16.131Z,65.56
2023-01-19T15:07:46.406Z,65.49
2023-01-19T15:10:23.983Z,65.30
2023-01-19T15:12:54.597Z,65.40
2023-01-19T15:15:35.761Z,65.22
2023-01-19T15:18:06.904Z,65.22
2023-01-19T15:20:35.074Z,65.26
2023-01-19T15:23:03.207Z,65.41
2023-01-19T15:25:31.642Z,65.12
2023-01-19T15:28:00.078Z,65.13
2023-01-19T15:30:33.539Z,65.05
2023-01-19T15:33:02.514Z,65.13
2023-01-19T15:35:30.673Z,65.10
2023-01-19T15:37:58.797Z,64.98
2023-01-19T15:40:26.936Z,65.13
2023-01-19T15:42:55.500Z,65.03
2023-01-19T15:45:34.088Z,65.15
2023-01-19T15:48:08.092Z,65.19
2023-01-19T15:50:39.655Z,65.27
2023-01-19T15:53:15.891Z,65.28
2023-01-19T15:55:44.709Z,65.38
2023-01-19T15:58:14.130Z,65.29
2023-01-19T16:00:42.339Z,65.38
2023-01-19T16:03:11.263Z,65.53
2023-01-19T16:05:43.551Z,65.64
2023-01-19T16:08:12.000Z,65.58
2023-01-19T16:10:44.052Z,65.57
2023-01-19T16:13:12.363Z,65.66
2023-01-19T16:15:42.543Z,65.55
2023-01-19T16:18:10.944Z,65.44
2023-01-19T16:20:39.101Z,65.46
2023-01-19T16:23:15.021Z,65.46
2023-01-19T16:25:43.925Z,65.56
2023-01-19T16:28:12.103Z,65.41
2023-01-19T16:30:40.255Z,65.68
2023-01-19T16:33:09.102Z,66.09
2023-01-19T16:35:37.201Z,66.33
2023-01-19T16:38:05.335Z,66.50
2023-01-19T16:40:33.574Z,66.82
2023-01-19T16:43:01.682Z,66.98
2023-01-19T16:45:31.134Z,67.38
2023-01-19T16:47:59.326Z,67.78
2023-01-19T16:50:27.423Z,68.12
2023-01-19T16:52:59.094Z,68.36
2023-01-19T16:55:27.354Z,68.78
2023-01-19T16:57:55.505Z,69.14
2023-01-19T17:00:23.764Z,69.32
2023-01-19T17:02:51.912Z,69.51
2023-01-19T17:05:20.108Z,69.69
2023-01-19T17:07:48.184Z,69.88
2023-01-19T17:10:16.485Z,70.12
2023-01-19T17:12:44.552Z,70.13
2023-01-19T17:15:12.636Z,70.33
2023-01-19T17:17:40.743Z,70.64
2023-01-19T17:20:10.008Z,71.03
2023-01-19T17:22:38.422Z,71.24
2023-01-19T17:25:07.648Z,71.35
2023-01-19T17:27:36.674Z,71.67
2023-01-19T17:30:05.240Z,71.68
2023-01-19T17:32:33.393Z,71.98
2023-01-19T17:35:01.551Z,72.17
2023-01-19T17:37:29.761Z,72.49
2023-01-19T17:39:57.857Z,72.62
2023-01-19T17:42:25.924Z,72.40
2023-01-19T17:44:54.047Z,72.75
2023-01-19T17:47:25.495Z,72.69
2023-01-19T17:49:53.613Z,72.77
2023-01-19T17:52:21.719Z,72.83
2023-01-19T17:54:49.919Z,73.30
2023-01-19T17:57:18.108Z,73.39
2023-01-19T17:59:47.878Z,73.50
2023-01-19T18:02:16.218Z,73.39
2023-01-19T18:04:44.610Z,73.02
2023-01-19T18:07:12.735Z,72.61
2023-01-19T18:09:40.858Z,72.81
2023-01-19T18:12:09.011Z,72.85
2023-01-19T18:14:38.190Z,73.08
2023-01-19T18:17:06.302Z,73.19
2023-01-19T18:19:34.571Z,73.57
2023-01-19T18:22:02.804Z,73.68
2023-01-19T18:24:31.002Z,73.97
2023-01-19T18:26:59.162Z,74.02
2023-01-19T18:29:27.834Z,74.12
2023-01-19T18:31:55.964Z,74.38
2023-01-19T18:34:24.296Z,74.57
2023-01-19T18:36:52.398Z,74.58
2023-01-19T18:39:20.534Z,74.60
2023-01-19T18:41:48.614Z,74.46
2023-01-19T18:44:16.680Z,74.45
2023-01-19T18:46:44.828Z,74.49
2023-01-19T18:49:13.122Z,74.54
2023-01-19T18:51:42.016Z,74.67
2023-01-19T18:54:11.551Z,74.57
2023-01-19T18:56:39.910Z,74.78
2023-01-19T18:59:08.035Z,74.76
2023-01-19T19:01:36.504Z,74.74
2023-01-19T19:04:05.090Z,74.74
2023-01-19T19:06:34.299Z,74.86
2023-01-19T19:09:03.263Z,74.77
2023-01-19T19:11:31.542Z,74.63
2023-01-19T19:14:02.891Z,74.71
2023-01-19T19:16:33.280Z,74.96
2023-01-19T19:19:03.075Z,74.91
2023-01-19T19:21:31.179Z,74.79
2023-01-19T19:23:59.351Z,74.58
2023-01-19T19:26:28.498Z,74.88
2023-01-19T19:28:56.986Z,74.92
2023-01-19T19:31:27.699Z,74.95
2023-01-19T19:33:58.227Z,74.80
2023-01-19T19:36:28.589Z,74.92
2023-01-19T19:38:59.609Z,74.72
2023-01-19T19:41:29.099Z,74.93
2023-01-19T19:43:57.295Z,74.62
2023-01-19T19:46:26.833Z,74.27
2023-01-19T19:48:55.599Z,74.39
2023-01-19T19:51:27.322Z,74.25
2023-01-19T19:54:01.310Z,74.15
2023-01-19T19:56:34.043Z,74.08
2023-01-19T19:59:02.127Z,73.78
2023-01-19T20:01:33.442Z,73.40
2023-01-19T20:04:11.048Z,73.25
2023-01-19T20:06:44.546Z,73.25
2023-01-19T20:09:14.316Z,73.26
2023-01-19T20:11:44.728Z,73.27
2023-01-19T20:14:14.352Z,73.39
2023-01-19T20:16:43.186Z,73.34
2023-01-19T20:19:11.502Z,73.47
2023-01-19T20:21:42.029Z,73.13
2023-01-19T20:24:15.836Z,73.30
2023-01-19T20:26:47.900Z,73.32
2023-01-19T20:29:16.765Z,73.43
2023-01-19T20:31:55.016Z,73.19
2023-01-19T20:34:28.055Z,73.26
2023-01-19T20:36:57.153Z,73.40
2023-01-19T20:39:25.394Z,73.35
2023-01-19T20:41:53.926Z,73.39
2023-01-19T20:44:25.478Z,73.22
2023-01-19T20:46:55.323Z,73.28
2023-01-19T20:49:24.059Z,73.30
2023-01-19T20:51:52.416Z,73.50
2023-01-19T20:54:27.089Z,73.34
2023-01-19T20:56:56.492Z,73.42
2023-01-19T20:59:24.668Z,73.46
2023-01-19T21:01:52.933Z,73.64
2023-01-19T21:04:22.398Z,73.53
2023-01-19T21:06:50.623Z,74.02
2023-01-19T21:09:18.744Z,74.12
2023-01-19T21:11:46.895Z,74.17
2023-01-19T21:14:15.059Z,74.38
2023-01-19T21:16:43.265Z,74.33
2023-01-19T21:19:12.008Z,74.56
2023-01-19T21:21:40.157Z,74.53
2023-01-19T21:24:11.003Z,74.52
2023-01-19T21:26:39.498Z,74.52
2023-01-19T21:29:10.175Z,74.41
2023-01-19T21:31:38.283Z,74.53
2023-01-19T21:34:06.673Z,74.58
2023-01-19T21:36:34.812Z,74.54
2023-01-19T21:39:05.067Z,74.68
2023-01-19T21:41:35.765Z,74.71
2023-01-19T21:44:04.401Z,74.90
2023-01-19T21:46:33.890Z,74.94
2023-01-19T21:49:06.351Z,74.99
2023-01-19T21:51:37.071Z,74.98
2023-01-19T21:54:06.926Z,74.90
2023-01-19T21:56:37.993Z,74.99
2023-01-19T21:59:06.462Z,75.06
2023-01-19T22:01:34.983Z,75.20
2023-01-19T22:04:04.359Z,75.27
2023-01-19T22:06:32.676Z,75.42
2023-01-19T22:09:00.856Z,75.43
2023-01-19T22:11:29.273Z,75.57
2023-01-19T22:13:59.756Z,75.67
2023-01-19T22:16:29.783Z,75.79
2023-01-19T22:19:01.949Z,75.93
2023-01-19T22:21:35.029Z,75.85
2023-01-19T22:24:04.914Z,75.87
2023-01-19T22:26:34.391Z,75.90
2023-01-19T22:29:05.161Z,75.78
2023-01-19T22:31:33.396Z,75.84
2023-01-19T22:34:01.765Z,75.98
2023-01-19T22:36:33.977Z,76.01
2023-01-19T22:39:06.630Z,76.01
2023-01-19T22:41:37.919Z,76.03
2023-01-19T22:44:10.950Z,75.92
2023-01-19T22:46:39.357Z,76.12
2023-01-19T22:49:10.482Z,76.30
2023-01-19T22:51:39.038Z,76.52
2023-01-19T22:54:07.783Z,76.36
2023-01-19T22:56:38.437Z,76.51
2023-01-19T22:59:07.210Z,76.61
2023-01-19T23:01:40.244Z,76.62
2023-01-19T23:04:13.094Z,76.49
2023-01-19T23:06:42.693Z,76.45
2023-01-19T23:09:14.055Z,76.51
2023-01-19T23:11:45.641Z,76.55
2023-01-19T23:14:16.981Z,76.57
2023-01-19T23:16:47.182Z,76.70
2023-01-19T23:19:17.307Z,76.89
2023-01-19T23:21:46.211Z,76.95
2023-01-19T23:24:14.313Z,76.96
2023-01-19T23:26:42.457Z,77.08
2023-01-19T23:29:14.262Z,76.96
2023-01-19T23:31:46.978Z,77.03
2023-01-19T23:34:16.452Z,76.95
2023-01-19T23:36:44.847Z,76.95
2023-01-19T23:39:20.548Z,77.14
2023-01-19T23:41:49.848Z,77.23
2023-01-19T23:44:18.289Z,77.21
2023-01-19T23:46:46.916Z,77.12
2023-01-19T23:49:15.034Z,77.27
2023-01-19T23:51:43.134Z,77.37
2023-01-19T23:54:12.346Z,77.39
2023-01-19T23:56:42.678Z,77.45
2023-01-19T23:59:14.081Z,77.42
